Time;durP1;ratioP1;P1;durP2;ratioP2;P2;SDS_P1;SDS_P2;PMS_P1;PMS_P2;Temp;Humidity;BMP_temperature;BMP_pressure;BME280_temperature;BME280_humidity;BME280_pressure;Samples;Min_cycle;Max_cycle;Signal;HPM_P1;HPM_P2
2024/04/26 00:02:17;;;;;;;13.13;10.57;;;;;;;6.87;70.22;99702.66;5451003;26;20234;-59
2024/04/26 00:04:47;;;;;;;15.60;11.53;;;;;;;6.85;70.64;99706.06;5452770;26;20305;-58
2024/04/26 00:07:17;;;;;;;11.73;9.70;;;;;;;6.83;71.00;99703.53;5453872;26;20276;-61
2024/04/26 00:09:45;;;;;;;12.73;10.07;;;;;;;6.79;70.69;99699.25;5453174;26;20235;-58
2024/04/26 00:12:17;;;;;;;17.20;11.47;;;;;;;6.82;70.92;99708.66;5452612;26;20281;-58
2024/04/26 00:14:47;;;;;;;11.87;9.50;;;;;;;6.80;70.50;99710.34;5453038;26;20737;-58
2024/04/26 00:17:17;;;;;;;14.90;11.10;;;;;;;6.74;70.26;99712.09;5443512;26;20279;-58
2024/04/26 00:19:46;;;;;;;13.93;11.00;;;;;;;6.71;70.04;99706.97;5446921;26;20302;-58
2024/04/26 00:22:16;;;;;;;13.67;10.47;;;;;;;6.67;69.58;99705.25;5452643;26;20282;-57
2024/04/26 00:24:46;;;;;;;15.17;11.53;;;;;;;6.64;69.85;99707.81;5451558;26;20307;-57
2024/04/26 00:27:19;;;;;;;15.17;10.20;;;;;;;6.63;70.15;99708.69;5452146;26;20302;-60
2024/04/26 00:29:49;;;;;;;16.10;10.80;;;;;;;6.59;70.27;99713.78;5452267;26;20334;-58
2024/04/26 00:32:19;;;;;;;15.57;11.37;;;;;;;6.58;70.64;99715.50;5452774;26;20234;-59
2024/04/26 00:34:49;;;;;;;15.20;10.80;;;;;;;6.54;71.16;99716.34;5445799;26;20744;-58
2024/04/26 00:37:19;;;;;;;15.20;11.67;;;;;;;6.49;71.13;99716.38;5446982;26;20238;-59
2024/04/26 00:39:48;;;;;;;13.97;11.17;;;;;;;6.49;71.07;99721.47;5451702;26;20235;-57
2024/04/26 00:42:21;;;;;;;14.07;11.30;;;;;;;6.45;71.60;99719.78;5446947;26;20572;-58
2024/04/26 00:44:51;;;;;;;14.97;11.43;;;;;;;6.45;71.34;99719.78;5451287;26;20350;-58
2024/04/26 00:47:21;;;;;;;16.87;12.00;;;;;;;6.41;71.43;99718.09;5451677;26;20817;-59
2024/04/26 00:49:52;;;;;;;14.57;11.10;;;;;;;6.41;71.44;99723.19;5452946;26;20222;-59
2024/04/26 00:52:22;;;;;;;15.23;11.20;;;;;;;6.39;71.57;99724.88;5439330;26;20345;-59
2024/04/26 00:54:52;;;;;;;15.87;11.20;;;;;;;6.37;71.72;99721.50;5448719;26;20242;-59
2024/04/26 00:57:24;;;;;;;16.17;11.10;;;;;;;6.35;71.35;99720.63;5451200;26;20230;-57
2024/04/26 00:59:54;;;;;;;13.90;10.77;;;;;;;6.31;71.75;99725.75;5452237;26;20273;-56
2024/04/26 01:02:26;;;;;;;14.33;11.40;;;;;;;6.28;71.61;99732.56;5451776;26;20659;-59
2024/04/26 01:04:56;;;;;;;16.90;11.37;;;;;;;6.22;71.39;99736.81;5451195;26;20285;-58
2024/04/26 01:07:26;;;;;;;12.73;10.73;;;;;;;6.20;71.58;99738.53;5451400;26;20238;-59
2024/04/26 01:09:56;;;;;;;13.67;9.97;;;;;;;6.16;71.19;99747.91;5447855;26;20600;-58
2024/04/26 01:12:28;;;;;;;14.87;10.67;;;;;;;6.15;71.40;99743.66;5433900;26;20917;-58
2024/04/26 01:14:58;;;;;;;13.20;10.67;;;;;;;6.14;71.40;99741.91;5436100;26;20242;-62
2024/04/26 01:17:28;;;;;;;13.37;10.63;;;;;;;6.14;71.36;99741.06;5451346;26;20249;-59
2024/04/26 01:19:58;;;;;;;13.37;10.67;;;;;;;6.12;71.71;99738.53;5452345;26;20265;-58
2024/04/26 01:22:34;;;;;;;15.90;10.60;;;;;;;6.15;71.41;99741.09;5451523;26;20625;-57
2024/04/26 01:25:07;;;;;;;15.10;10.70;;;;;;;6.18;71.28;99740.22;5451293;26;20292;-60
2024/04/26 01:27:37;;;;;;;19.03;10.80;;;;;;;6.18;71.41;99746.19;5451604;26;20607;-59
2024/04/26 01:30:08;;;;;;;13.50;10.33;;;;;;;6.15;70.94;99740.22;5437244;26;20346;-59
2024/04/26 01:32:38;;;;;;;14.57;10.43;;;;;;;6.13;71.08;99741.94;5420976;26;20247;-61
2024/04/26 01:35:08;;;;;;;15.03;11.33;;;;;;;6.09;71.46;99746.19;5439915;26;20258;-58
2024/04/26 01:37:38;;;;;;;16.17;11.23;;;;;;;6.05;71.33;99744.47;5446064;26;20245;-57
2024/04/26 01:40:11;;;;;;;13.67;10.43;;;;;;;6.05;71.67;99752.16;5452042;26;20330;-60
2024/04/26 01:42:41;;;;;;;14.37;11.00;;;;;;;6.03;71.27;99751.28;5450231;26;20737;-59
2024/04/26 01:45:11;;;;;;;12.10;9.10;;;;;;;6.01;71.71;99750.44;5451189;26;20333;-58
2024/04/26 01:47:40;;;;;;;13.57;9.67;;;;;;;6.01;71.39;99746.19;5423679;26;20298;-60
2024/04/26 01:50:10;;;;;;;15.57;10.67;;;;;;;6.05;71.44;99757.25;5451490;26;20333;-57
2024/04/26 01:52:40;;;;;;;14.27;10.57;;;;;;;6.04;71.38;99753.00;5450982;26;20737;-59
2024/04/26 01:55:13;;;;;;;15.30;10.70;;;;;;;6.05;71.12;99755.56;5451088;26;20704;-57
2024/04/26 01:57:43;;;;;;;13.53;10.17;;;;;;;6.01;71.12;99758.13;5451210;26;20230;-58
2024/04/26 02:00:14;;;;;;;14.80;10.30;;;;;;;6.00;71.05;99751.28;5451466;26;20230;-58
2024/04/26 02:02:41;;;;;;;13.97;9.93;;;;;;;5.96;70.27;99758.06;5450170;26;20717;-60
2024/04/26 02:05:11;;;;;;;15.07;10.40;;;;;;;5.90;69.80;99762.31;5436730;26;20635;-59
2024/04/26 02:07:40;;;;;;;20.77;11.30;;;;;;;5.82;70.30;99768.25;5436923;26;20593;-59
2024/04/26 02:10:10;;;;;;;14.27;11.13;;;;;;;5.76;70.37;99763.13;5451322;26;20277;-58
2024/04/26 02:12:40;;;;;;;15.17;10.87;;;;;;;5.74;70.82;99774.16;5450936;26;20808;-58
2024/04/26 02:15:10;;;;;;;16.23;11.03;;;;;;;5.68;71.07;99774.16;5448857;26;20759;-59
2024/04/26 02:17:37;;;;;;;16.83;11.00;;;;;;;5.70;71.35;99778.41;5431249;26;20272;-59
2024/04/26 02:20:08;;;;;;;14.93;10.77;;;;;;;5.74;71.23;99787.84;5451412;26;20772;-59
2024/04/26 02:22:36;;;;;;;14.50;11.13;;;;;;;5.72;71.05;99781.84;5446162;26;20709;-58
2024/04/26 02:25:06;;;;;;;15.73;11.03;;;;;;;5.72;71.33;99781.00;5439465;26;20312;-58
2024/04/26 02:27:36;;;;;;;14.33;10.53;;;;;;;5.69;71.28;99776.72;5450955;26;20784;-58
2024/04/26 02:30:09;;;;;;;15.00;10.63;;;;;;;5.62;70.69;99769.03;5446697;26;20276;-58
2024/04/26 02:32:40;;;;;;;14.03;10.47;;;;;;;5.64;71.09;99780.13;5440320;26;20242;-57
2024/04/26 02:35:11;;;;;;;12.70;9.80;;;;;;;5.65;71.16;99780.13;5450532;26;20729;-59
2024/04/26 02:37:41;;;;;;;14.87;10.77;;;;;;;5.63;71.06;99781.78;5450600;26;20724;-60
2024/04/26 02:40:11;;;;;;;16.00;10.30;;;;;;;5.65;71.00;99789.50;5450624;26;20713;-60
2024/04/26 02:42:41;;;;;;;14.93;9.87;;;;;;;5.66;71.46;99786.06;5449930;26;20242;-59
2024/04/26 02:45:14;;;;;;;13.60;10.00;;;;;;;5.67;71.23;99790.34;5437441;26;20752;-63
2024/04/26 02:47:41;;;;;;;14.23;9.73;;;;;;;5.70;70.85;99798.88;5443530;26;20234;-58
2024/04/26 02:50:11;;;;;;;13.70;10.13;;;;;;;5.70;70.54;99798.88;5446469;26;20285;-61
2024/04/26 02:52:41;;;;;;;15.23;10.10;;;;;;;5.64;70.58;99796.31;5450267;26;20246;-59
2024/04/26 02:55:11;;;;;;;13.87;10.47;;;;;;;5.60;70.71;99801.38;5450037;26;20794;-59
2024/04/26 02:57:40;;;;;;;12.57;10.03;;;;;;;5.53;71.00;99801.38;5450542;26;20229;-58
2024/04/26 03:00:11;;;;;;;13.63;9.47;;;;;;;5.52;71.21;99809.00;5449917;26;20230;-57
2024/04/26 03:02:43;;;;;;;14.60;10.17;;;;;;;5.53;71.37;99809.03;5425289;26;20242;-60
2024/04/26 03:05:13;;;;;;;13.63;9.80;;;;;;;5.51;71.37;99812.41;5443350;26;20726;-59
2024/04/26 03:07:43;;;;;;;16.53;10.10;;;;;;;5.48;71.14;99808.13;5450675;26;20802;-59
2024/04/26 03:10:13;;;;;;;12.70;9.83;;;;;;;5.49;71.27;99803.91;5442058;26;20724;-59
2024/04/26 03:12:42;;;;;;;15.33;10.27;;;;;;;5.46;71.45;99816.66;5449412;26;20246;-59
2024/04/26 03:15:13;;;;;;;14.30;10.37;;;;;;;5.42;71.62;99812.38;5450462;26;20297;-58
2024/04/26 03:17:45;;;;;;;16.13;10.93;;;;;;;5.42;71.62;99825.16;5450155;26;20649;-60
2024/04/26 03:20:15;;;;;;;15.17;9.40;;;;;;;5.40;71.92;99819.16;5434902;26;20243;-59
2024/04/26 03:22:45;;;;;;;12.10;9.40;;;;;;;5.41;71.87;99828.53;5439010;26;20246;-59
2024/04/26 03:25:15;;;;;;;12.40;9.47;;;;;;;5.41;72.04;99825.97;5449957;26;20338;-58
2024/04/26 03:27:45;;;;;;;11.47;8.67;;;;;;;5.40;71.54;99829.38;5449747;26;20264;-58
2024/04/26 03:30:15;;;;;;;13.03;9.00;;;;;;;5.40;71.32;99837.06;5449510;26;20230;-59
2024/04/26 03:32:48;;;;;;;13.47;8.10;;;;;;;5.37;71.84;99830.22;5443840;26;20292;-59
2024/04/26 03:35:18;;;;;;;13.40;7.97;;;;;;;5.35;71.52;99820.84;5452167;26;20342;-60
2024/04/26 03:37:48;;;;;;;11.47;8.37;;;;;;;5.37;71.87;99826.81;5453098;26;20234;-59
2024/04/26 03:40:18;;;;;;;13.13;8.40;;;;;;;5.40;71.78;99831.94;5442125;26;20299;-58
2024/04/26 03:42:47;;;;;;;11.40;7.37;;;;;;;5.45;71.62;99835.38;5445112;26;20346;-58
2024/04/26 03:45:17;;;;;;;11.40;8.00;;;;;;;5.49;71.18;99834.56;5452341;26;20257;-59
2024/04/26 03:47:50;;;;;;;15.13;8.50;;;;;;;5.52;70.84;99826.91;5453196;26;21000;-60
2024/04/26 03:50:20;;;;;;;12.47;8.30;;;;;;;5.54;70.84;99826.06;5452328;26;20337;-60
2024/04/26 03:52:50;;;;;;;13.10;8.63;;;;;;;5.59;70.78;99826.09;5452080;26;20230;-60
2024/04/26 03:55:20;;;;;;;10.97;8.07;;;;;;;5.65;70.69;99830.38;5453087;26;20269;-59
2024/04/26 03:57:49;;;;;;;11.40;7.33;;;;;;;5.73;70.20;99828.72;5452927;26;20631;-59
2024/04/26 04:00:19;;;;;;;12.57;8.93;;;;;;;5.79;70.24;99829.59;5449987;26;20257;-61
2024/04/26 04:02:52;;;;;;;11.40;7.93;;;;;;;5.87;70.04;99826.22;5436045;26;20342;-59
2024/04/26 04:05:23;;;;;;;13.40;8.10;;;;;;;5.96;69.65;99837.34;5452988;26;20230;-60
2024/04/26 04:07:55;;;;;;;13.60;8.63;;;;;;;6.04;69.96;99834.84;5453299;26;20234;-59
2024/04/26 04:10:25;;;;;;;11.50;8.47;;;;;;;6.10;68.97;99829.72;5452218;26;20231;-57
2024/04/26 04:12:55;;;;;;;11.10;7.93;;;;;;;6.16;68.50;99834.88;5450827;26;20351;-59
2024/04/26 04:15:25;;;;;;;12.47;7.63;;;;;;;6.17;67.31;99833.16;5453043;26;20835;-59
2024/04/26 04:17:58;;;;;;;12.97;8.87;;;;;;;6.16;67.28;99834.03;5440452;26;23295;-59
2024/04/26 04:20:27;;;;;;;14.23;8.80;;;;;;;6.19;67.89;99840.00;5442086;26;20875;-60
2024/04/26 04:22:57;;;;;;;13.83;9.43;;;;;;;6.28;68.00;99839.16;5452193;26;20230;-60
2024/04/26 04:25:27;;;;;;;13.10;9.40;;;;;;;6.34;67.37;99851.13;5452266;26;20315;-58
2024/04/26 04:27:57;;;;;;;14.67;10.77;;;;;;;6.42;67.34;99841.75;5452628;26;20316;-62
2024/04/26 04:30:27;;;;;;;14.33;10.53;;;;;;;6.56;67.35;99842.66;5453032;26;20214;-59
2024/04/26 04:32:59;;;;;;;17.23;11.23;;;;;;;6.69;66.79;99841.78;5452189;26;20257;-59
2024/04/26 04:35:31;;;;;;;15.37;11.97;;;;;;;6.80;65.45;99836.69;5445658;26;20259;-59
2024/04/26 04:38:02;;;;;;;14.30;10.30;;;;;;;6.83;65.00;99836.69;5440953;26;20281;-59
2024/04/26 04:40:34;;;;;;;15.73;10.53;;;;;;;6.91;64.67;99844.38;5447201;26;20284;-59
2024/04/26 04:43:03;;;;;;;14.40;10.83;;;;;;;7.02;64.29;99850.34;5452438;26;20581;-59
2024/04/26 04:45:33;;;;;;;15.57;11.10;;;;;;;7.14;64.23;99849.47;5448232;26;20358;-59
2024/04/26 04:48:06;;;;;;;15.23;11.63;;;;;;;7.29;63.90;99844.34;5450851;26;20660;-59
2024/04/26 04:50:36;;;;;;;20.13;12.67;;;;;;;7.44;62.63;99853.72;5451801;26;20294;-58
2024/04/26 04:53:07;;;;;;;17.17;11.50;;;;;;;7.54;62.60;99850.25;5449877;26;20233;-58
2024/04/26 04:55:37;;;;;;;20.13;12.13;;;;;;;7.61;61.66;99849.41;5443845;26;20247;-57
2024/04/26 04:58:09;;;;;;;17.53;11.63;;;;;;;7.66;61.26;99851.97;5450438;26;20246;-64
2024/04/26 05:00:39;;;;;;;18.90;12.77;;;;;;;7.68;61.22;99853.66;5451809;26;20338;-60
2024/04/26 05:03:13;;;;;;;18.30;11.93;;;;;;;7.71;61.16;99848.50;5430811;26;20242;-59
2024/04/26 05:05:43;;;;;;;17.33;12.60;;;;;;;7.80;60.77;99862.16;5443459;26;20349;-59
2024/04/26 05:08:13;;;;;;;16.73;12.37;;;;;;;7.84;60.66;99864.75;5451259;26;20246;-60
2024/04/26 05:10:43;;;;;;;16.50;11.77;;;;;;;7.95;60.17;99867.22;5451799;26;20246;-59
2024/04/26 05:13:13;;;;;;;19.43;12.33;;;;;;;8.08;60.30;99873.19;5452093;26;20231;-59
2024/04/26 05:15:43;;;;;;;17.57;12.07;;;;;;;8.37;60.46;99873.06;5442864;26;20785;-61
2024/04/26 05:18:15;;;;;;;18.87;12.17;;;;;;;8.81;60.24;99866.81;5444533;26;20243;-58
2024/04/26 05:20:45;;;;;;;16.60;11.83;;;;;;;9.27;59.18;99857.00;5449751;26;20242;-59
2024/04/26 05:23:15;;;;;;;15.73;11.23;;;;;;;9.72;57.47;99859.09;5451509;26;20273;-60
2024/04/26 05:25:45;;;;;;;15.77;11.17;;;;;;;10.10;54.83;99868.97;5449629;26;20258;-59
2024/04/26 05:28:15;;;;;;;16.53;11.37;;;;;;;10.49;53.49;99856.44;5449454;26;20234;-58
2024/04/26 05:30:45;;;;;;;18.67;11.57;;;;;;;11.18;52.77;99858.81;5451997;26;20706;-61
2024/04/26 05:33:17;;;;;;;16.77;11.53;;;;;;;12.17;50.63;99850.09;5444642;26;20289;-61
2024/04/26 05:35:47;;;;;;;15.67;10.97;;;;;;;13.37;47.16;99856.75;5442436;26;20277;-61
2024/04/26 05:38:18;;;;;;;15.17;10.30;;;;;;;14.32;43.16;99846.31;5450299;26;20312;-59
2024/04/26 05:40:48;;;;;;;17.20;10.63;;;;;;;15.07;41.17;99851.75;5451137;26;20254;-58
2024/04/26 05:43:18;;;;;;;15.85;10.50;;;;;;;15.54;39.20;99858.81;5451474;26;20612;-59
2024/04/26 05:45:48;;;;;;;13.02;10.35;;;;;;;15.58;38.76;99863.03;5447462;26;20246;-59
2024/04/26 05:48:21;;;;;;;17.20;10.20;;;;;;;15.57;39.00;99866.50;5450482;26;20249;-60
2024/04/26 05:50:51;;;;;;;15.90;10.48;;;;;;;15.53;39.87;99868.34;5447826;26;20737;-59
2024/04/26 05:53:22;;;;;;;15.32;10.02;;;;;;;15.83;39.55;99861.28;5441984;26;20516;-58
2024/04/26 05:55:52;;;;;;;13.45;9.65;;;;;;;16.04;38.71;99864.00;5433694;26;20246;-58
2024/04/26 05:58:22;;;;;;;13.60;8.95;;;;;;;16.30;38.31;99866.47;5439054;26;20306;-57
2024/04/26 06:00:51;;;;;;;14.38;9.88;;;;;;;16.60;38.20;99866.19;5450478;26;21124;-57
2024/04/26 06:03:24;;;;;;;13.43;9.60;;;;;;;17.10;36.98;99872.00;5444973;26;20337;-58
2024/04/26 06:05:56;;;;;;;14.55;9.30;;;;;;;17.86;36.32;99867.91;5433825;26;20258;-64
2024/04/26 06:08:28;;;;;;;11.40;10.10;;;;;;;18.32;33.45;99870.19;5440861;26;20289;-59
2024/04/26 06:10:58;;;;;;;14.95;9.75;;;;;;;18.41;33.86;99872.38;5428831;26;20293;-61
2024/04/26 06:13:28;;;;;;;12.07;9.85;;;;;;;18.43;32.71;99869.69;5448739;26;20285;-60
2024/04/26 06:16:05;;;;;;;15.57;10.48;;;;;;;18.62;34.02;99873.13;5449016;26;20242;-61
2024/04/26 06:18:38;;;;;;;12.88;10.07;;;;;;;19.16;33.24;99871.41;5449995;26;20242;-59
2024/04/26 06:21:09;;;;;;;13.15;10.25;;;;;;;19.70;32.05;99873.91;5438543;26;20559;-60
2024/04/26 06:23:39;;;;;;;13.77;9.38;;;;;;;20.05;30.72;99874.69;5449983;26;20242;-60
2024/04/26 06:26:09;;;;;;;13.63;9.35;;;;;;;20.22;30.53;99876.41;5436612;26;20281;-61
2024/04/26 06:28:42;;;;;;;12.73;10.25;;;;;;;20.27;30.03;99879.59;5437012;26;20255;-60
2024/04/26 06:31:13;;;;;;;13.57;11.18;;;;;;;20.71;29.90;99877.19;5438334;26;20235;-59
2024/04/26 06:33:45;;;;;;;14.90;11.73;;;;;;;21.77;28.77;99884.16;5434570;26;20313;-60
2024/04/26 06:36:15;;;;;;;11.52;10.13;;;;;;;22.56;28.20;99878.38;5448650;26;20569;-61
2024/04/26 06:38:45;;;;;;;13.68;10.88;;;;;;;23.46;26.76;99878.69;5451418;26;20230;-61
2024/04/26 06:41:15;;;;;;;14.55;10.77;;;;;;;24.29;24.15;99882.53;5450391;26;20234;-60
2024/04/26 06:43:45;;;;;;;14.57;10.52;;;;;;;24.88;23.76;99879.16;5447379;26;20350;-61
2024/04/26 06:46:16;;;;;;;13.00;9.93;;;;;;;25.43;22.49;99875.06;5433309;26;20286;-61
2024/04/26 06:48:49;;;;;;;12.05;9.60;;;;;;;26.11;22.69;99877.81;5433372;26;20828;-61
2024/04/26 06:51:19;;;;;;;11.73;9.13;;;;;;;27.22;21.51;99881.16;5434038;26;20246;-63
2024/04/26 06:53:50;;;;;;;10.55;8.88;;;;;;;27.83;20.27;99889.19;5430471;26;20759;-64
2024/04/26 06:56:19;;;;;;;13.80;10.50;;;;;;;27.75;20.22;99880.22;5415351;26;20266;-63
2024/04/26 06:58:49;;;;;;;10.77;9.65;;;;;;;27.91;19.47;99886.75;5442838;26;20242;-61
2024/04/26 07:01:19;;;;;;;12.85;10.10;;;;;;;28.18;19.54;99885.28;5439437;26;21036;-62
2024/04/26 07:03:52;;;;;;;13.75;9.98;;;;;;;29.07;18.96;99878.22;5445865;26;20275;-62
2024/04/26 07:06:22;;;;;;;9.95;8.65;;;;;;;29.64;17.85;99883.59;5446031;26;20759;-63
2024/04/26 07:08:52;;;;;;;10.82;8.88;;;;;;;29.84;18.18;99889.69;5447971;26;20238;-58
2024/04/26 07:11:22;;;;;;;12.35;9.50;;;;;;;30.26;17.36;99882.09;5432464;26;20934;-60
2024/04/26 07:13:53;;;;;;;10.63;9.30;;;;;;;30.17;17.44;99882.16;5432644;26;20655;-58
2024/04/26 07:16:23;;;;;;;15.25;10.40;;;;;;;30.41;17.49;99886.91;5448014;26;20346;-64
2024/04/26 07:18:55;;;;;;;14.85;9.68;;;;;;;29.78;17.15;99891.09;5442943;26;20246;-62
2024/04/26 07:21:25;;;;;;;12.93;10.57;;;;;;;29.50;17.79;99884.03;5447164;26;20258;-69
2024/04/26 07:23:55;;;;;;;18.17;11.50;;;;;;;29.99;18.08;99892.72;5436028;26;20247;-62
2024/04/26 07:26:26;;;;;;;14.13;9.68;;;;;;;30.88;17.22;99881.44;5432607;26;20878;-63
2024/04/26 07:28:56;;;;;;;10.02;8.85;;;;;;;30.84;15.74;99898.72;5444425;26;20297;-63
2024/04/26 07:31:40;;;;;;;10.70;8.13;;;;;;;29.94;17.04;99897.63;5449564;26;20238;-63
2024/04/26 07:34:12;;;;;;;12.40;9.02;;;;;;;29.51;17.50;99888.34;5449222;26;20362;-62
2024/04/26 07:36:43;;;;;;;12.95;8.82;;;;;;;29.79;17.49;99899.94;5449336;26;20242;-60
2024/04/26 07:39:13;;;;;;;10.32;7.78;;;;;;;29.97;16.63;99905.28;5440190;26;20239;-63
2024/04/26 07:41:45;;;;;;;10.95;7.65;;;;;;;29.54;17.13;99896.88;5445142;26;20226;-61
2024/04/26 07:44:15;;;;;;;8.82;7.28;;;;;;;29.87;17.39;99899.19;5448800;26;20234;-62
2024/04/26 07:46:45;;;;;;;11.32;7.40;;;;;;;30.11;16.67;99891.53;5438747;26;20242;-62
2024/04/26 07:49:17;;;;;;;13.73;8.75;;;;;;;30.53;16.44;99893.72;5448729;26;20234;-61
2024/04/26 07:51:47;;;;;;;9.18;7.53;;;;;;;31.03;15.99;99890.56;5449697;26;20234;-60
2024/04/26 07:54:17;;;;;;;10.82;7.55;;;;;;;30.97;16.14;99888.53;5449087;26;20762;-61
2024/04/26 07:56:47;;;;;;;11.25;7.65;;;;;;;31.35;16.05;99886.53;5439762;26;20242;-63
2024/04/26 07:59:17;;;;;;;11.25;7.05;;;;;;;31.12;15.57;99897.63;5433062;26;20350;-63
2024/04/26 08:01:47;;;;;;;7.82;5.78;;;;;;;30.84;15.78;99885.41;5443743;26;20582;-61
2024/04/26 08:04:19;;;;;;;7.28;5.75;;;;;;;31.52;15.05;99893.66;5445214;26;20783;-63
2024/04/26 08:06:49;;;;;;;9.18;5.63;;;;;;;31.89;14.28;99890.72;5448673;26;20265;-62
2024/04/26 08:09:19;;;;;;;6.65;5.82;;;;;;;31.40;14.58;99890.38;5449349;26;20658;-66
2024/04/26 08:11:50;;;;;;;11.20;6.03;;;;;;;31.10;15.31;99902.25;5445669;26;20245;-65
2024/04/26 08:14:20;;;;;;;6.82;5.53;;;;;;;31.12;14.84;99889.66;5439125;26;20681;-62
2024/04/26 08:16:50;;;;;;;7.45;5.85;;;;;;;31.14;14.43;99890.31;5441157;26;20729;-63
2024/04/26 08:19:27;;;;;;;7.75;5.57;;;;;;;30.92;15.03;99901.44;5447851;26;20230;-69
2024/04/26 08:21:58;;;;;;;5.60;5.03;;;;;;;31.29;15.18;99891.44;5444477;26;20288;-62
2024/04/26 08:24:27;;;;;;;6.78;4.97;;;;;;;31.81;14.65;99889.78;5446533;26;20346;-62
2024/04/26 08:26:59;;;;;;;5.18;4.35;;;;;;;31.38;14.30;99899.53;5453176;26;20334;-62
2024/04/26 08:29:30;;;;;;;6.25;4.78;;;;;;;30.76;14.61;99897.63;5452485;26;20238;-62
2024/04/26 08:32:01;;;;;;;5.32;4.40;;;;;;;30.49;15.18;99900.31;5452249;26;20234;-64
2024/04/26 08:34:34;;;;;;;5.45;4.28;;;;;;;30.53;14.66;99901.69;5451810;26;20242;-62
2024/04/26 08:37:04;;;;;;;8.52;5.20;;;;;;;30.44;15.00;99897.25;5441244;26;20284;-62
2024/04/26 08:39:35;;;;;;;5.38;4.43;;;;;;;30.06;15.14;99894.63;5442028;26;20569;-62
2024/04/26 08:42:16;;;;;;;4.20;3.35;;;;;;;29.28;15.77;99896.63;5445668;26;20237;-63
2024/04/26 08:44:46;;;;;;;2.55;2.35;;;;;;;28.83;16.08;99896.31;5453267;26;20294;-62
2024/04/26 08:47:18;;;;;;;3.45;2.90;;;;;;;28.21;16.85;99890.34;5452890;26;20280;-62
2024/04/26 08:49:54;;;;;;;3.00;2.67;;;;;;;26.56;17.49;99897.09;5452010;26;20294;-60
2024/04/26 08:52:26;;;;;;;3.00;2.65;;;;;;;25.48;18.76;99898.47;5451773;26;20736;-59
2024/04/26 08:54:56;;;;;;;3.10;2.40;;;;;;;24.61;19.33;99911.03;5451770;26;20242;-60
2024/04/26 08:57:26;;;;;;;3.40;2.78;;;;;;;24.05;20.71;99902.69;5446432;26;20250;-61
2024/04/26 08:59:59;;;;;;;3.70;2.80;;;;;;;24.18;20.09;99907.94;5432537;26;20242;-62
2024/04/26 09:02:29;;;;;;;4.28;3.03;;;;;;;23.67;21.10;99900.91;5433108;26;20738;-62
2024/04/26 09:05:01;;;;;;;3.90;3.20;;;;;;;22.72;21.86;99907.16;5452209;26;20630;-60
2024/04/26 09:07:31;;;;;;;5.30;3.13;;;;;;;21.78;23.98;99913.84;5452704;26;20218;-63
2024/04/26 09:10:01;;;;;;;6.00;2.70;;;;;;;21.48;23.34;99911.28;5452210;26;20231;-61
2024/04/26 09:12:31;;;;;;;5.43;2.80;;;;;;;21.28;24.08;99915.00;5450566;26;20258;-60
2024/04/26 09:15:06;;;;;;;3.17;2.72;;;;;;;21.26;24.39;99906.41;5436029;26;20302;-61
2024/04/26 09:17:36;;;;;;;4.95;3.50;;;;;;;20.89;25.06;99913.75;5446260;26;20246;-63
2024/04/26 09:20:09;;;;;;;3.45;2.78;;;;;;;20.61;25.08;99910.03;5451923;26;20277;-63
2024/04/26 09:22:39;;;;;;;3.33;2.97;;;;;;;20.61;25.45;99910.03;5445462;26;20793;-62
2024/04/26 09:25:09;;;;;;;5.57;3.13;;;;;;;20.59;26.06;99896.19;5432979;26;21895;-61
2024/04/26 09:27:39;;;;;;;3.25;2.90;;;;;;;20.05;24.81;99911.31;5451566;26;20238;-61
2024/04/26 09:30:09;;;;;;;3.50;2.90;;;;;;;19.70;26.08;99906.16;5427561;26;20243;-64
2024/04/26 09:32:40;;;;;;;2.67;2.22;;;;;;;19.29;26.23;99902.97;5451251;26;20307;-62
2024/04/26 09:35:28;;;;;;;3.25;2.75;;;;;;;19.15;26.79;99908.91;5437369;26;20238;-62
2024/04/26 09:37:59;;;;;;;4.32;2.78;;;;;;;18.94;26.45;99909.94;5452112;26;20233;-62
2024/04/26 09:40:30;;;;;;;3.10;2.50;;;;;;;19.10;26.27;99910.88;5451663;26;20569;-62
2024/04/26 09:43:01;;;;;;;3.72;2.20;;;;;;;18.81;26.35;99902.69;5447319;26;20241;-61
2024/04/26 09:45:31;;;;;;;5.40;2.42;;;;;;;18.39;27.17;99907.28;5449136;26;20289;-61
2024/04/26 09:48:01;;;;;;;3.80;2.95;;;;;;;18.14;27.29;99899.72;5447800;26;20234;-63
2024/04/26 09:50:34;;;;;;;3.15;2.15;;;;;;;17.61;27.79;99904.59;5426473;26;20242;-62
2024/04/26 09:53:04;;;;;;;5.03;2.40;;;;;;;17.19;28.29;99909.81;5451188;26;20234;-63
2024/04/26 09:55:35;;;;;;;4.78;2.58;;;;;;;16.90;28.41;99898.00;5451825;26;20353;-62
2024/04/26 09:58:04;;;;;;;4.53;2.00;;;;;;;17.12;28.78;99890.16;5451033;26;20280;-62
2024/04/26 10:00:34;;;;;;;4.15;2.03;;;;;;;17.79;26.94;99902.97;5449523;26;20795;-63
2024/04/26 10:03:07;;;;;;;2.28;1.65;;;;;;;17.96;26.23;99888.34;5440964;26;20311;-64
2024/04/26 10:05:40;;;;;;;4.10;2.03;;;;;;;18.05;26.27;99893.16;5440618;26;20247;-63
2024/04/26 10:08:11;;;;;;;1.80;1.70;;;;;;;18.54;26.17;99883.91;5431082;26;20238;-63
2024/04/26 10:10:41;;;;;;;1.77;1.55;;;;;;;19.30;24.41;99882.00;5451357;26;20744;-63
2024/04/26 10:13:16;;;;;;;5.18;1.88;;;;;;;19.75;22.88;99896.28;5424277;26;20235;-60
2024/04/26 10:15:54;;;;;;;3.35;1.20;;;;;;;19.58;22.66;99877.97;5450277;26;20233;-62
2024/04/26 10:18:34;;;;;;;4.32;1.77;;;;;;;20.31;22.32;99886.34;5447461;26;20246;-63
2024/04/26 10:21:08;;;;;;;1.65;1.50;;;;;;;21.36;20.95;99884.00;5448542;26;20353;-62
2024/04/26 10:23:38;;;;;;;2.67;1.42;;;;;;;22.13;19.76;99873.19;5434799;26;20250;-63
2024/04/26 10:26:09;;;;;;;1.30;1.15;;;;;;;22.47;19.48;99870.25;5443286;26;20298;-60
2024/04/26 10:28:39;;;;;;;1.48;1.38;;;;;;;23.16;18.67;99866.66;5448225;26;20287;-63
2024/04/26 10:31:09;;;;;;;3.22;1.58;;;;;;;23.23;18.08;99864.44;5451281;26;20241;-62
2024/04/26 10:33:39;;;;;;;2.17;1.63;;;;;;;21.81;19.74;99877.78;5447833;26;20363;-60
2024/04/26 10:36:12;;;;;;;1.40;1.30;;;;;;;20.21;21.99;99880.81;5450546;26;20280;-63
2024/04/26 10:38:43;;;;;;;2.30;1.67;;;;;;;19.01;23.48;99891.28;5449705;26;20234;-61
2024/04/26 10:41:15;;;;;;;2.30;1.67;;;;;;;18.19;24.33;99896.00;5451532;26;20277;-63
2024/04/26 10:43:45;;;;;;;2.42;1.40;;;;;;;18.66;24.68;99882.50;5446615;26;20258;-62
2024/04/26 10:46:19;;;;;;;2.80;1.50;;;;;;;20.01;22.96;99876.63;5444582;26;20653;-60
2024/04/26 10:48:49;;;;;;;2.75;1.60;;;;;;;20.07;22.88;99872.84;5438862;26;20734;-58
2024/04/26 10:51:23;;;;;;;2.67;1.40;;;;;;;19.23;22.56;99877.16;5450822;26;20222;-58
2024/04/26 10:53:53;;;;;;;1.48;1.38;;;;;;;18.63;24.13;99871.34;5434670;26;20713;-59
2024/04/26 10:56:23;;;;;;;2.05;1.48;;;;;;;19.49;23.30;99868.00;5445498;26;20246;-58
2024/04/26 10:58:53;;;;;;;3.08;1.30;;;;;;;20.67;21.90;99866.97;5448947;26;20823;-60
2024/04/26 11:01:24;;;;;;;1.63;1.20;;;;;;;20.49;21.23;99872.31;5444043;26;20576;-59
2024/04/26 11:03:56;;;;;;;2.33;1.10;;;;;;;19.89;20.54;99873.81;5445569;26;20839;-60
2024/04/26 11:06:34;;;;;;;0.82;0.82;;;;;;;19.87;20.73;99860.81;5447432;26;20580;-60
2024/04/26 11:09:13;;;;;;;3.75;0.90;;;;;;;20.62;21.07;99869.84;5450232;26;20315;-58
2024/04/26 11:11:55;;;;;;;2.95;1.35;;;;;;;20.58;20.88;99873.56;5450014;26;20289;-60
2024/04/26 11:14:26;;;;;;;1.20;1.10;;;;;;;19.85;21.38;99861.84;5450954;26;20302;-60
2024/04/26 11:16:56;;;;;;;1.58;1.10;;;;;;;19.75;22.17;99862.31;5449821;26;20242;-59
2024/04/26 11:19:27;;;;;;;1.40;1.00;;;;;;;20.03;21.43;99861.69;5440462;26;20861;-61
2024/04/26 11:22:01;;;;;;;1.20;1.10;;;;;;;19.92;20.58;99863.16;5445328;26;20639;-59
2024/04/26 11:24:31;;;;;;;2.45;1.20;;;;;;;19.43;20.07;99857.88;5426529;26;20247;-59
2024/04/26 11:27:04;;;;;;;3.15;1.10;;;;;;;19.34;20.61;99866.19;5443472;26;21136;-59
2024/04/26 11:29:35;;;;;;;2.03;1.33;;;;;;;19.08;21.20;99876.16;5450907;26;20307;-62
2024/04/26 11:32:04;;;;;;;1.63;0.90;;;;;;;19.02;21.19;99866.00;5448981;26;20258;-59
2024/04/26 11:34:34;;;;;;;0.88;0.88;;;;;;;18.96;21.55;99879.34;5449937;26;20331;-60
2024/04/26 11:37:07;;;;;;;2.03;1.25;;;;;;;18.66;22.05;99872.06;5450247;26;20268;-61
2024/04/26 11:39:37;;;;;;;3.17;1.80;;;;;;;17.98;22.75;99879.56;5420299;26;20898;-60
2024/04/26 11:42:07;;;;;;;1.65;1.10;;;;;;;17.71;21.94;99878.13;5448659;26;20787;-59
2024/04/26 11:44:37;;;;;;;1.33;0.82;;;;;;;17.75;20.81;99891.00;5417901;26;20244;-59
2024/04/26 11:47:07;;;;;;;2.38;1.20;;;;;;;17.89;21.31;99881.72;5446312;26;20234;-62